Time;durP1;ratioP1;P1;durP2;ratioP2;P2;SDS_P1;SDS_P2;PMS_P1;PMS_P2;Temp;Humidity;BMP_temperature;BMP_pressure;BME280_temperature;BME280_humidity;BME280_pressure;Samples;Min_cycle;Max_cycle;Signal;HPM_P1;HPM_P2
2023/01/22 12:11:23;;;;;;;24.48;11.40;;;3.10;96.80;;;;;;7430022;19;20067;-77
2023/01/22 12:14:25;;;;;;;24.25;10.88;;;3.20;97.20;;;;;;7408167;19;20089;-79
2023/01/22 12:17:01;;;;;;;31.13;11.35;;;3.90;96.50;;;;;;7408926;19;20391;-78
2023/01/22 12:19:51;;;;;;;42.03;12.48;;;4.30;95.60;;;;;;7407934;19;20070;-78
2023/01/22 12:22:30;;;;;;;33.43;12.60;;;4.30;95.60;;;;;;7407577;19;20622;-78
2023/01/22 12:25:05;;;;;;;30.20;12.55;;;4.40;94.50;;;;;;7407252;19;20322;-78
2023/01/22 12:27:40;;;;;;;28.67;11.45;;;4.80;94.10;;;;;;7408332;19;20458;-77
2023/01/22 12:30:23;;;;;;;29.95;12.25;;;5.10;93.00;;;;;;7406387;19;20085;-78
2023/01/22 12:32:57;;;;;;;28.80;12.10;;;5.20;93.00;;;;;;7397891;19;20023;-78
2023/01/22 12:35:27;;;;;;;30.30;12.25;;;5.10;93.20;;;;;;7426123;19;20039;-77
2023/01/22 12:38:02;;;;;;;34.07;11.57;;;5.40;93.10;;;;;;7405305;19;20536;-79
2023/01/22 12:41:05;;;;;;;29.15;10.75;;;5.50;92.60;;;;;;7403080;19;20021;-79
2023/01/22 12:43:45;;;;;;;27.80;11.73;;;5.50;91.60;;;;;;7403478;19;20018;-79
2023/01/22 12:46:20;;;;;;;26.95;11.52;;;5.50;91.70;;;;;;7403936;19;20117;-78
2023/01/22 12:48:57;;;;;;;28.50;10.48;;;5.70;91.50;;;;;;7403009;19;20022;-79
2023/01/22 12:51:28;;;;;;;35.15;12.68;;;5.90;91.10;;;;;;7406752;19;20750;-80
2023/01/22 12:53:56;;;;;;;;;;;6.00;91.50;;;;;;7407839;19;20666;-79
2023/01/22 12:56:33;;;;;;;27.27;11.93;;;6.10;92.60;;;;;;7427790;19;19930;-79
2023/01/22 12:59:04;;;;;;;30.95;12.25;;;6.20;91.70;;;;;;7406466;19;20078;-79
2023/01/22 13:01:34;;;;;;;;;;;6.30;91.70;;;;;;7406378;19;20019;-80
2023/01/22 13:04:05;;;;;;;33.13;11.05;;;6.20;91.60;;;;;;7406187;19;19923;-78
2023/01/22 13:06:36;;;;;;;23.80;10.15;;;6.20;91.00;;;;;;7406779;19;20098;-82
2023/01/22 13:09:06;;;;;;;27.27;10.65;;;6.40;90.90;;;;;;7405796;19;20073;-80
2023/01/22 13:11:36;;;;;;;23.40;10.18;;;6.30;90.40;;;;;;7405274;19;20014;-78
2023/01/22 13:14:20;;;;;;;21.25;9.65;;;6.10;90.50;;;;;;7431353;19;20011;-79
2023/01/22 13:16:55;;;;;;;33.47;10.10;;;6.00;90.30;;;;;;7410791;19;20117;-85
2023/01/22 13:19:27;;;;;;;17.63;9.07;;;6.00;90.10;;;;;;7406256;19;20053;-87
2023/01/22 13:22:00;;;;;;;20.23;8.43;;;6.10;89.70;;;;;;7381771;19;20014;-84
2023/01/22 13:24:29;;;;;;;22.73;9.07;;;5.80;89.80;;;;;;7375126;19;20090;-84
2023/01/22 13:26:59;;;;;;;20.05;9.57;;;5.80;90.00;;;;;;7377241;19;20014;-84
2023/01/22 13:29:34;;;;;;;27.13;9.27;;;6.10;90.50;;;;;;7400920;19;20109;-86
2023/01/22 13:32:05;;;;;;;19.85;9.75;;;5.80;90.80;;;;;;7380287;19;20133;-86
2023/01/22 13:34:34;;;;;;;16.70;8.77;;;5.80;90.80;;;;;;7382572;19;20064;-85
2023/01/22 13:37:03;;;;;;;16.83;8.88;;;5.90;90.10;;;;;;7389848;19;20006;-86
2023/01/22 13:39:33;;;;;;;21.02;9.13;;;6.00;90.00;;;;;;7382783;19;20019;-86
2023/01/22 13:42:05;;;;;;;15.87;8.63;;;6.10;89.10;;;;;;7379966;19;20101;-86
2023/01/22 13:44:40;;;;;;;18.33;9.15;;;6.10;88.90;;;;;;7377904;19;20475;-83
2023/01/22 13:47:09;;;;;;;19.77;9.15;;;6.20;89.50;;;;;;7394166;19;20089;-83
2023/01/22 13:49:44;;;;;;;26.77;10.15;;;6.30;90.10;;;;;;7377949;19;20128;-82
2023/01/22 13:52:20;;;;;;;19.98;9.90;;;6.30;90.00;;;;;;7383610;19;20018;-88
2023/01/22 13:54:53;;;;;;;18.63;8.98;;;6.50;88.60;;;;;;7374799;19;20402;-85
2023/01/22 13:57:23;;;;;;;16.50;8.23;;;6.40;87.60;;;;;;7373747;19;20106;-81
2023/01/22 14:00:00;;;;;;;20.48;9.40;;;6.40;87.70;;;;;;7384965;19;20150;-83
2023/01/22 14:02:33;;;;;;;15.35;8.02;;;6.50;87.80;;;;;;7395111;19;20442;-82
2023/01/22 14:05:02;;;;;;;18.85;8.07;;;6.50;87.00;;;;;;7373335;19;20027;-83
2023/01/22 14:07:33;;;;;;;16.88;8.43;;;6.50;87.70;;;;;;7375019;19;20532;-81
2023/01/22 14:10:14;;;;;;;15.07;8.40;;;6.30;88.20;;;;;;7377847;19;20018;-80
2023/01/22 14:12:43;;;;;;;12.15;6.95;;;6.30;89.20;;;;;;7376491;19;20029;-82
2023/01/22 14:15:22;;;;;;;17.00;7.50;;;6.40;88.10;;;;;;7398986;19;20052;-82
2023/01/22 14:17:52;;;;;;;15.75;7.88;;;6.30;86.90;;;;;;7364115;19;20050;-82
2023/01/22 14:20:54;;;;;;;12.80;7.10;;;6.30;87.10;;;;;;7377810;19;20010;-83
2023/01/22 14:23:23;;;;;;;15.07;7.95;;;6.10;87.30;;;;;;7377728;19;20015;-81
2023/01/22 14:26:10;;;;;;;16.88;7.30;;;5.60;89.30;;;;;;7373763;19;20018;-81
2023/01/22 14:28:39;;;;;;;14.45;7.15;;;5.70;90.20;;;;;;7372238;19;20018;-81
2023/01/22 14:31:11;;;;;;;16.83;7.35;;;5.80;89.50;;;;;;7393801;19;20014;-79
2023/01/22 14:33:40;;;;;;;;;;;5.90;89.80;;;;;;7394724;19;20082;-80
2023/01/22 14:36:10;;;;;;;15.02;7.28;;;6.20;89.20;;;;;;7406890;19;19951;-82
2023/01/22 14:38:39;;;;;;;14.90;7.78;;;6.30;88.30;;;;;;7386462;19;20027;-81
2023/01/22 14:41:08;;;;;;;16.40;8.35;;;6.10;88.50;;;;;;7387447;19;20014;-79
2023/01/22 14:43:37;;;;;;;17.30;7.47;;;6.00;88.80;;;;;;7398335;19;20070;-81
2023/01/22 14:46:11;;;;;;;16.95;7.85;;;6.10;89.70;;;;;;7362047;19;20018;-78
2023/01/22 14:48:40;;;;;;;19.30;8.70;;;6.10;89.80;;;;;;7373271;19;20018;-80
2023/01/22 14:51:11;;;;;;;15.85;8.50;;;6.20;89.80;;;;;;7374966;19;20015;-80
2023/01/22 14:53:44;;;;;;;13.80;7.93;;;6.30;88.60;;;;;;7376161;19;20015;-82
2023/01/22 14:56:12;;;;;;;18.95;8.50;;;6.30;88.00;;;;;;7373934;19;20031;-80
2023/01/22 14:58:41;;;;;;;17.45;7.90;;;6.30;87.90;;;;;;7395723;19;20047;-81
2023/01/22 15:01:21;;;;;;;17.98;8.75;;;6.20;87.50;;;;;;7371973;19;20085;-83
2023/01/22 15:03:51;;;;;;;14.68;8.18;;;6.00;88.30;;;;;;7374168;19;20014;-85
2023/01/22 15:06:19;;;;;;;18.85;8.25;;;6.00;89.10;;;;;;7371996;19;20483;-81
2023/01/22 15:08:48;;;;;;;17.45;9.60;;;6.20;89.40;;;;;;7372676;19;20077;-80
2023/01/22 15:11:17;;;;;;;17.35;8.88;;;6.20;90.00;;;;;;7371659;19;20097;-84
2023/01/22 15:13:45;;;;;;;16.25;8.38;;;6.30;88.60;;;;;;7393236;19;20086;-79
2023/01/22 15:16:14;;;;;;;21.00;9.52;;;6.30;88.20;;;;;;7373773;19;20587;-83
2023/01/22 15:18:46;;;;;;;18.48;8.85;;;6.10;89.40;;;;;;7375454;19;20022;-80
2023/01/22 15:21:14;;;;;;;;;;;5.70;89.60;;;;;;7373085;19;20022;-81
2023/01/22 15:23:43;;;;;;;16.05;8.65;;;5.90;90.20;;;;;;7379751;19;19914;-86
2023/01/22 15:26:25;;;;;;;18.33;9.05;;;6.10;90.10;;;;;;7394593;19;20035;-78
2023/01/22 15:28:55;;;;;;;13.02;7.15;;;6.20;90.20;;;;;;7406998;19;20791;-78
2023/01/22 15:31:24;;;;;;;16.92;8.88;;;5.80;89.10;;;;;;7381714;19;20040;-79
2023/01/22 15:33:56;;;;;;;17.50;8.80;;;5.70;90.50;;;;;;7377599;19;20808;-80
2023/01/22 15:36:25;;;;;;;19.15;9.15;;;5.60;90.30;;;;;;7374811;19;20022;-78
2023/01/22 15:38:54;;;;;;;19.98;9.77;;;5.50;90.70;;;;;;7373818;19;20501;-78
2023/01/22 15:41:25;;;;;;;20.20;9.52;;;5.80;90.70;;;;;;7371489;19;20114;-77
2023/01/22 15:43:59;;;;;;;21.00;10.32;;;6.20;90.60;;;;;;7392050;19;20098;-79
2023/01/22 15:46:29;;;;;;;20.80;10.65;;;5.90;90.70;;;;;;7371839;19;20018;-79
2023/01/22 15:49:02;;;;;;;22.43;10.57;;;5.90;90.40;;;;;;7371621;19;20109;-78
2023/01/22 15:51:31;;;;;;;21.20;10.57;;;5.90;90.50;;;;;;7371337;19;20339;-79
2023/01/22 15:54:05;;;;;;;21.35;10.88;;;6.20;90.40;;;;;;7371948;19;20105;-79
2023/01/22 15:56:35;;;;;;;22.02;10.45;;;6.30;90.10;;;;;;7372209;19;20479;-79
2023/01/22 15:59:06;;;;;;;19.05;9.90;;;6.50;90.00;;;;;;7380023;19;20105;-78
2023/01/22 16:01:35;;;;;;;21.77;10.25;;;6.50;89.60;;;;;;7393079;19;20029;-80
2023/01/22 16:04:07;;;;;;;20.92;11.07;;;6.60;89.70;;;;;;7371745;19;20043;-78
2023/01/22 16:06:36;;;;;;;23.73;11.40;;;6.60;89.60;;;;;;7372935;19;20022;-79
2023/01/22 16:09:07;;;;;;;24.13;10.70;;;6.60;89.30;;;;;;7368802;19;20086;-79
2023/01/22 16:11:37;;;;;;;22.90;10.68;;;6.60;88.70;;;;;;7372034;19;20526;-78
2023/01/22 16:14:05;;;;;;;24.25;11.23;;;6.60;88.60;;;;;;7370742;19;20018;-78
2023/01/22 16:16:36;;;;;;;21.85;10.32;;;6.50;88.80;;;;;;7391036;19;20081;-78
2023/01/22 16:19:09;;;;;;;25.30;11.93;;;6.60;89.10;;;;;;7372317;19;21016;-80
2023/01/22 16:21:38;;;;;;;24.17;11.55;;;6.60;89.60;;;;;;7373113;19;20064;-80
2023/01/22 16:24:07;;;;;;;20.13;10.90;;;6.70;89.60;;;;;;7371126;19;20453;-79
2023/01/22 16:26:38;;;;;;;21.42;10.98;;;6.60;88.80;;;;;;7371737;19;20085;-81
2023/01/22 16:29:08;;;;;;;22.40;11.27;;;6.30;88.30;;;;;;7364823;19;20090;-81
2023/01/22 16:31:37;;;;;;;22.67;10.85;;;6.30;89.70;;;;;;7390790;19;20018;-81
2023/01/22 16:34:16;;;;;;;25.40;11.25;;;6.30;89.70;;;;;;7373332;19;20497;-84
2023/01/22 16:36:46;;;;;;;26.60;11.63;;;6.40;89.40;;;;;;7378831;19;20022;-86
2023/01/22 16:39:19;;;;;;;31.33;12.63;;;6.40;90.10;;;;;;7373886;19;20105;-84
2023/01/22 16:41:49;;;;;;;26.85;11.00;;;6.50;90.20;;;;;;7373600;19;20506;-84
2023/01/22 16:44:19;;;;;;;25.08;11.02;;;6.50;89.90;;;;;;7374384;19;20017;-83
2023/01/22 16:46:53;;;;;;;27.13;11.60;;;6.50;90.00;;;;;;7394693;19;20015;-84
2023/01/22 16:49:25;;;;;;;20.42;11.55;;;6.30;88.90;;;;;;7373512;19;20122;-82
2023/01/22 16:51:58;;;;;;;22.95;10.85;;;6.20;89.80;;;;;;7373765;19;20090;-83
2023/01/22 16:54:29;;;;;;;27.55;11.57;;;5.70;90.30;;;;;;7372621;19;20090;-83
2023/01/22 16:56:59;;;;;;;23.05;12.23;;;6.00;90.80;;;;;;7377766;19;20023;-84
2023/01/22 16:59:29;;;;;;;20.85;11.98;;;6.10;90.90;;;;;;7378644;19;20046;-84
2023/01/22 17:01:59;;;;;;;23.45;11.95;;;6.30;90.50;;;;;;7399504;19;20015;-84
2023/01/22 17:04:31;;;;;;;24.33;11.18;;;6.40;90.30;;;;;;7378890;19;20070;-84
2023/01/22 17:07:01;;;;;;;24.95;12.65;;;6.30;89.70;;;;;;7378600;19;20620;-83
2023/01/22 17:09:34;;;;;;;22.55;12.07;;;6.30;90.20;;;;;;7379491;19;20093;-84
2023/01/22 17:12:06;;;;;;;25.08;13.25;;;6.20;90.10;;;;;;7378887;19;20007;-82
2023/01/22 17:14:38;;;;;;;34.97;13.73;;;6.00;90.70;;;;;;7379562;19;20011;-83
2023/01/22 17:17:07;;;;;;;;;;;6.10;91.30;;;;;;7376396;19;20612;-83
2023/01/22 17:19:38;;;;;;;26.75;12.30;;;6.10;90.70;;;;;;7401521;19;20454;-82
2023/01/22 17:22:08;;;;;;;24.30;13.13;;;6.30;90.60;;;;;;7381897;19;20032;-82
2023/01/22 17:24:39;;;;;;;24.83;13.25;;;6.20;90.70;;;;;;7384383;19;20509;-83
2023/01/22 17:27:10;;;;;;;24.08;12.27;;;6.00;90.60;;;;;;7385493;19;20019;-83
2023/01/22 17:29:40;;;;;;;29.92;13.00;;;6.10;90.50;;;;;;7386902;19;20449;-82
2023/01/22 17:32:09;;;;;;;27.38;14.10;;;6.20;90.80;;;;;;7380553;19;20035;-82
2023/01/22 17:34:40;;;;;;;29.45;14.02;;;6.40;90.90;;;;;;7397358;19;20081;-82
2023/01/22 17:37:12;;;;;;;32.25;14.82;;;6.50;90.60;;;;;;7378684;19;20056;-83
2023/01/22 17:39:49;;;;;;;30.92;13.63;;;6.50;90.50;;;;;;7377430;19;20015;-82
2023/01/22 17:42:18;;;;;;;34.38;16.08;;;6.40;90.30;;;;;;7377363;19;20094;-81
2023/01/22 17:44:46;;;;;;;30.70;14.77;;;6.50;90.50;;;;;;7378683;19;20019;-82
2023/01/22 17:47:15;;;;;;;30.27;14.38;;;6.60;90.40;;;;;;7378545;19;20113;-81
2023/01/22 17:49:46;;;;;;;38.03;15.10;;;6.40;90.00;;;;;;7399323;19;20090;-82
2023/01/22 17:52:16;;;;;;;36.75;15.27;;;6.30;90.50;;;;;;7376650;19;20090;-81
2023/01/22 17:54:45;;;;;;;26.58;13.57;;;6.30;91.00;;;;;;7378330;19;20010;-82
2023/01/22 17:57:14;;;;;;;29.10;14.73;;;6.00;91.00;;;;;;7381376;19;20022;-82
2023/01/22 17:59:42;;;;;;;35.08;15.07;;;5.90;91.00;;;;;;7378823;19;20089;-82
2023/01/22 18:02:12;;;;;;;34.08;14.90;;;6.00;91.10;;;;;;7377374;19;20030;-81
2023/01/22 18:04:40;;;;;;;38.10;16.02;;;6.10;90.80;;;;;;7400620;19;20050;-82
2023/01/22 18:07:12;;;;;;;37.80;15.70;;;6.20;90.90;;;;;;7378088;19;20062;-83
2023/01/22 18:09:40;;;;;;;;;;;6.10;90.90;;;;;;7380146;19;20014;-81
2023/01/22 18:12:09;;;;;;;33.88;14.25;;;6.10;91.50;;;;;;7378404;19;19930;-82
2023/01/22 18:14:40;;;;;;;28.42;14.25;;;6.30;91.40;;;;;;7375877;19;20094;-81
2023/01/22 18:17:09;;;;;;;30.85;14.57;;;6.30;90.90;;;;;;7376026;19;20106;-81
2023/01/22 18:19:38;;;;;;;32.95;15.10;;;6.20;90.90;;;;;;7405608;19;20032;-82
2023/01/22 18:22:06;;;;;;;32.45;14.85;;;6.20;91.00;;;;;;7399600;19;20506;-82
2023/01/22 18:24:38;;;;;;;30.83;15.05;;;6.30;91.00;;;;;;7408261;19;20619;-83
2023/01/22 18:27:06;;;;;;;;;;;6.20;91.00;;;;;;7397473;19;20027;-82
2023/01/22 18:29:35;;;;;;;41.75;15.80;;;6.20;91.40;;;;;;7409353;19;20368;-82
2023/01/22 18:32:04;;;;;;;33.63;15.30;;;6.20;91.30;;;;;;7424159;19;20021;-81
2023/01/22 18:34:32;;;;;;;37.92;15.25;;;6.30;91.00;;;;;;7416881;19;20010;-82
2023/01/22 18:37:01;;;;;;;37.17;17.35;;;6.40;90.80;;;;;;7379974;19;20441;-83
2023/01/22 18:39:30;;;;;;;33.88;16.73;;;6.50;90.60;;;;;;7377958;19;20022;-83
2023/01/22 18:42:01;;;;;;;34.28;16.92;;;6.50;90.50;;;;;;7375416;19;20071;-83
2023/01/22 18:44:30;;;;;;;40.58;16.77;;;6.50;90.50;;;;;;7378926;19;20133;-82
2023/01/22 18:47:00;;;;;;;37.03;17.27;;;6.40;90.60;;;;;;7402901;19;20089;-82
2023/01/22 18:49:29;;;;;;;32.08;15.60;;;6.10;91.20;;;;;;7397877;19;20098;-81
2023/01/22 18:51:59;;;;;;;33.72;16.63;;;6.10;91.10;;;;;;7396561;19;20035;-82
2023/01/22 18:54:28;;;;;;;38.30;17.88;;;6.20;91.10;;;;;;7381366;19;20026;-83
2023/01/22 18:57:00;;;;;;;38.65;17.02;;;6.30;90.90;;;;;;7377382;19;20035;-81
2023/01/22 18:59:31;;;;;;;36.50;17.08;;;6.30;90.70;;;;;;7374934;19;20018;-82
2023/01/22 19:02:00;;;;;;;34.45;17.08;;;6.20;90.50;;;;;;7399099;19;20584;-82
2023/01/22 19:04:29;;;;;;;41.15;18.38;;;6.10;91.10;;;;;;7380418;19;20018;-83
2023/01/22 19:06:59;;;;;;;40.22;17.92;;;6.20;91.70;;;;;;7385820;19;20086;-80
2023/01/22 19:09:30;;;;;;;31.65;17.30;;;6.20;91.40;;;;;;7391187;19;20014;-81
2023/01/22 19:11:59;;;;;;;33.25;16.60;;;6.30;91.10;;;;;;7389462;19;20031;-82
2023/01/22 19:14:27;;;;;;;41.28;18.52;;;6.30;90.80;;;;;;7380606;19;20117;-81
2023/01/22 19:16:59;;;;;;;39.47;17.55;;;6.30;90.60;;;;;;7397551;19;20668;-82
2023/01/22 19:19:27;;;;;;;44.22;19.27;;;6.30;90.60;;;;;;7375851;19;21378;-81
2023/01/22 19:21:57;;;;;;;44.25;19.70;;;6.30;90.80;;;;;;7376313;19;20017;-82
2023/01/22 19:24:27;;;;;;;41.30;19.63;;;6.40;90.80;;;;;;7375500;19;20090;-81
2023/01/22 19:26:56;;;;;;;39.63;18.60;;;6.40;90.60;;;;;;7374373;19;20022;-80
2023/01/22 19:29:26;;;;;;;37.22;18.25;;;6.40;90.50;;;;;;7371448;19;20079;-81
2023/01/22 19:31:58;;;;;;;42.63;17.90;;;6.50;90.60;;;;;;7392808;19;20648;-81
2023/01/22 19:34:29;;;;;;;39.47;18.58;;;6.40;90.30;;;;;;7374734;19;20021;-80
2023/01/22 19:37:00;;;;;;;39.22;17.40;;;6.20;90.50;;;;;;7372262;19;20043;-80
2023/01/22 19:39:28;;;;;;;38.33;18.52;;;6.20;90.70;;;;;;7373613;19;20022;-81
2023/01/22 19:42:00;;;;;;;40.13;17.42;;;6.20;90.80;;;;;;7374137;19;20327;-81
2023/01/22 19:44:29;;;;;;;45.80;18.58;;;6.30;90.80;;;;;;7372636;19;20051;-81
2023/01/22 19:47:01;;;;;;;42.97;18.80;;;6.40;90.90;;;;;;7392384;19;20018;-81
2023/01/22 19:49:29;;;;;;;;;;;6.40;90.80;;;;;;7374113;19;20403;-81
2023/01/22 19:51:58;;;;;;;42.13;17.05;;;6.50;90.60;;;;;;7371837;19;20018;-81
2023/01/22 19:54:27;;;;;;;36.83;16.90;;;6.50;90.50;;;;;;7372497;19;20026;-81
2023/01/22 19:56:56;;;;;;;39.40;17.42;;;6.50;90.40;;;;;;7372840;19;20097;-80
2023/01/22 19:59:26;;;;;;;39.55;18.92;;;6.50;90.40;;;;;;7375017;19;20547;-83
2023/01/22 20:01:55;;;;;;;39.15;18.08;;;6.50;90.50;;;;;;7399480;19;20351;-80
2023/01/22 20:04:31;;;;;;;40.53;18.77;;;6.60;90.30;;;;;;7376605;19;20014;-78
2023/01/22 20:07:04;;;;;;;38.55;17.75;;;6.30;90.30;;;;;;7377085;19;20025;-87
2023/01/22 20:09:34;;;;;;;36.22;17.60;;;6.30;90.40;;;;;;7373827;19;20078;-81
2023/01/22 20:12:04;;;;;;;45.17;19.05;;;6.40;90.40;;;;;;7372159;19;20105;-82
2023/01/22 20:14:36;;;;;;;40.67;18.92;;;6.40;90.40;;;;;;7371961;19;20014;-81
2023/01/22 20:17:05;;;;;;;39.90;19.27;;;6.40;90.50;;;;;;7374338;19;20014;-81
2023/01/22 20:19:38;;;;;;;44.42;19.65;;;6.40;90.50;;;;;;7392796;19;20014;-80
2023/01/22 20:22:09;;;;;;;46.78;20.35;;;6.40;90.70;;;;;;7371494;19;20033;-82
2023/01/22 20:24:39;;;;;;;;;;;6.40;90.70;;;;;;7373434;19;20473;-81
2023/01/22 20:27:09;;;;;;;40.55;17.35;;;6.50;91.30;;;;;;7372924;19;19919;-81
2023/01/22 20:29:40;;;;;;;40.75;18.10;;;6.50;91.10;;;;;;7373030;19;20015;-82
2023/01/22 20:32:12;;;;;;;26.60;13.77;;;6.50;90.80;;;;;;7378877;19;20056;-80
2023/01/22 20:34:47;;;;;;;43.72;19.48;;;6.50;90.70;;;;;;7402538;19;20033;-81
2023/01/22 20:37:16;;;;;;;42.85;20.15;;;6.50;91.00;;;;;;7382449;19;20049;-84
2023/01/22 20:39:45;;;;;;;38.72;19.27;;;6.50;90.60;;;;;;7379955;19;20014;-82
2023/01/22 20:42:13;;;;;;;44.88;20.63;;;6.60;90.70;;;;;;7378038;19;20086;-82
2023/01/22 20:44:43;;;;;;;47.53;20.15;;;6.60;90.70;;;;;;7376507;19;20457;-81
2023/01/22 20:47:11;;;;;;;45.75;19.95;;;6.70;90.70;;;;;;7379471;19;20085;-81
2023/01/22 20:49:42;;;;;;;43.03;20.10;;;6.70;90.70;;;;;;7401542;19;20679;-82
2023/01/22 20:52:11;;;;;;;44.65;20.20;;;6.70;90.60;;;;;;7378873;19;20372;-81
2023/01/22 20:54:40;;;;;;;44.30;19.52;;;6.70;90.50;;;;;;7379198;19;20085;-81
2023/01/22 20:57:08;;;;;;;40.83;19.27;;;6.70;90.30;;;;;;7378652;19;20023;-81
2023/01/22 20:59:37;;;;;;;46.40;20.60;;;6.60;90.20;;;;;;7377789;19;20121;-81
2023/01/22 21:02:06;;;;;;;39.33;19.55;;;6.50;90.30;;;;;;7375752;19;20015;-80
2023/01/22 21:04:36;;;;;;;42.70;19.40;;;6.50;90.50;;;;;;7396268;19;20277;-81
2023/01/22 21:07:08;;;;;;;41.22;18.13;;;6.60;90.50;;;;;;7378220;19;20529;-81
2023/01/22 21:09:38;;;;;;;43.38;18.70;;;6.40;90.30;;;;;;7377357;19;20073;-81
2023/01/22 21:12:07;;;;;;;46.90;19.60;;;6.40;91.00;;;;;;7379298;19;20143;-82
2023/01/22 21:14:36;;;;;;;42.80;18.50;;;6.40;91.00;;;;;;7378375;19;20031;-82
2023/01/22 21:17:05;;;;;;;49.97;21.00;;;6.30;90.80;;;;;;7381674;19;20077;-81
2023/01/22 21:19:33;;;;;;;47.53;19.83;;;6.40;90.80;;;;;;7401332;19;20081;-80
2023/01/22 21:22:04;;;;;;;49.85;21.02;;;6.40;90.70;;;;;;7378383;19;20018;-82
2023/01/22 21:24:39;;;;;;;40.55;17.90;;;6.50;90.70;;;;;;7375634;19;20541;-81
2023/01/22 21:27:07;;;;;;;42.47;19.50;;;6.40;90.50;;;;;;7377660;19;20021;-82
2023/01/22 21:29:36;;;;;;;42.05;19.77;;;6.30;90.50;;;;;;7376069;19;20505;-81
2023/01/22 21:32:05;;;;;;;41.72;19.00;;;6.30;90.60;;;;;;7383426;19;20032;-81
2023/01/22 21:34:35;;;;;;;40.42;19.55;;;6.20;91.40;;;;;;7399077;19;20031;-81
2023/01/22 21:37:04;;;;;;;44.28;20.08;;;6.30;91.10;;;;;;7375379;19;20438;-82
2023/01/22 21:39:37;;;;;;;41.00;20.08;;;6.20;90.90;;;;;;7374608;19;20358;-82
2023/01/22 21:47:28;;;;;;;51.47;21.38;;;6.30;91.00;;;;;;7380297;19;20719;-81
2023/01/22 21:49:57;;;;;;;42.92;20.27;;;6.30;90.90;;;;;;7399427;19;20452;-80
2023/01/22 21:52:26;;;;;;;45.47;21.10;;;6.40;91.00;;;;;;7377191;19;20014;-81
2023/01/22 21:54:57;;;;;;;50.17;20.88;;;6.40;90.90;;;;;;7376530;19;20657;-80
2023/01/22 21:57:27;;;;;;;43.67;20.20;;;6.30;90.80;;;;;;7376907;19;20426;-81
2023/01/22 21:59:55;;;;;;;48.67;22.10;;;6.30;90.90;;;;;;7376166;19;20052;-81
2023/01/22 22:02:24;;;;;;;43.35;18.52;;;6.30;91.00;;;;;;7372795;19;20067;-81
2023/01/22 22:04:53;;;;;;;47.38;20.08;;;6.30;90.90;;;;;;7396539;19;20018;-81
2023/01/22 22:07:21;;;;;;;42.25;20.55;;;6.20;91.00;;;;;;7376158;19;20018;-82
2023/01/22 22:09:50;;;;;;;42.17;20.85;;;6.00;91.60;;;;;;7376701;19;20085;-80
2023/01/22 22:12:22;;;;;;;45.28;21.30;;;5.90;92.10;;;;;;7377583;19;20113;-81
2023/01/22 22:14:50;;;;;;;;;;;6.10;91.80;;;;;;7377942;19;20014;-81
2023/01/22 22:17:19;;;;;;;43.22;18.92;;;6.30;91.50;;;;;;7371558;19;19940;-76
2023/01/22 22:19:47;;;;;;;43.95;19.38;;;6.30;91.20;;;;;;7395210;19;20070;-76
2023/01/22 22:22:17;;;;;;;45.17;19.92;;;6.30;91.10;;;;;;7371510;19;20007;-76
2023/01/22 22:24:45;;;;;;;41.50;18.40;;;6.40;91.10;;;;;;7372542;19;20015;-76
2023/01/22 22:27:14;;;;;;;44.28;20.90;;;6.00;91.00;;;;;;7373783;19;20445;-76
2023/01/22 22:29:45;;;;;;;44.95;20.75;;;6.10;91.40;;;;;;7372723;19;20018;-76
2023/01/22 22:32:14;;;;;;;46.45;20.65;;;6.20;91.20;;;;;;7373880;19;20343;-75
2023/01/22 22:34:43;;;;;;;43.97;19.95;;;6.30;91.10;;;;;;7394266;19;20022;-76
2023/01/22 22:37:12;;;;;;;39.78;19.02;;;6.30;91.10;;;;;;7372007;19;20019;-76
2023/01/22 22:39:40;;;;;;;42.00;19.45;;;6.20;91.20;;;;;;7373504;19;20022;-75
2023/01/22 22:42:09;;;;;;;41.08;20.38;;;6.20;91.20;;;;;;7369748;19;20330;-76
2023/01/22 22:44:38;;;;;;;45.63;20.30;;;6.30;91.20;;;;;;7373870;19;20017;-75
2023/01/22 22:47:10;;;;;;;42.35;19.80;;;6.40;91.10;;;;;;7372293;19;20018;-75
2023/01/22 22:49:39;;;;;;;41.65;20.50;;;6.40;90.90;;;;;;7393565;19;20438;-75
2023/01/22 22:52:08;;;;;;;47.30;21.08;;;6.50;90.90;;;;;;7371534;19;20091;-76
2023/01/22 22:54:37;;;;;;;43.53;19.55;;;6.50;91.00;;;;;;7370386;19;20482;-76
2023/01/22 22:57:06;;;;;;;47.38;21.73;;;6.50;91.00;;;;;;7371194;19;20089;-76
2023/01/22 22:59:35;;;;;;;46.95;20.67;;;6.40;90.90;;;;;;7372936;19;20022;-75
2023/01/22 23:02:04;;;;;;;52.47;23.25;;;6.40;90.90;;;;;;7394767;19;20118;-75
2023/01/22 23:04:36;;;;;;;54.28;21.33;;;6.40;91.00;;;;;;7393675;19;20015;-76
2023/01/22 23:07:04;;;;;;;;;;;6.40;91.50;;;;;;7372484;19;20038;-76
2023/01/22 23:09:33;;;;;;;50.22;20.98;;;6.50;91.00;;;;;;7373573;19;20334;-76
2023/01/22 23:12:02;;;;;;;51.65;21.70;;;6.40;91.30;;;;;;7373400;19;20010;-76
2023/01/22 23:14:31;;;;;;;49.30;21.77;;;6.50;91.00;;;;;;7372419;19;20006;-76
2023/01/22 23:16:59;;;;;;;46.05;21.70;;;6.50;91.00;;;;;;7391487;19;20021;-76
2023/01/22 23:19:29;;;;;;;48.78;21.55;;;6.60;91.20;;;;;;7370050;19;20685;-76
2023/01/22 23:22:01;;;;;;;46.70;21.15;;;6.60;91.00;;;;;;7371628;19;20028;-76
2023/01/22 23:24:30;;;;;;;52.63;22.67;;;6.50;90.80;;;;;;7371322;19;20481;-76
2023/01/22 23:26:59;;;;;;;62.55;22.70;;;6.30;91.00;;;;;;7370736;19;20013;-76
2023/01/22 23:29:28;;;;;;;48.95;23.08;;;6.40;91.40;;;;;;7370796;19;20074;-76
2023/01/22 23:31:57;;;;;;;51.90;22.92;;;6.50;91.40;;;;;;7390957;19;20014;-76
2023/01/22 23:34:26;;;;;;;51.83;21.90;;;6.50;91.20;;;;;;7370077;19;20025;-76
2023/01/22 23:36:54;;;;;;;53.38;23.98;;;6.50;91.00;;;;;;7370495;19;20057;-76
2023/01/22 23:39:26;;;;;;;51.58;22.38;;;6.60;91.00;;;;;;7369560;19;20014;-77
2023/01/22 23:41:54;;;;;;;58.13;24.70;;;6.60;91.00;;;;;;7370246;19;20025;-76
2023/01/22 23:44:23;;;;;;;51.78;22.08;;;6.70;91.10;;;;;;7368484;19;20006;-76
2023/01/22 23:46:52;;;;;;;61.88;23.73;;;6.70;91.20;;;;;;7391789;19;20074;-76
2023/01/22 23:49:20;;;;;;;54.50;23.55;;;6.70;91.10;;;;;;7370580;19;20020;-76
2023/01/22 23:51:49;;;;;;;57.40;24.42;;;6.70;90.90;;;;;;7371017;19;20045;-76
2023/01/22 23:54:18;;;;;;;57.78;23.42;;;6.70;91.00;;;;;;7370710;19;20431;-76
2023/01/22 23:56:49;;;;;;;55.78;23.45;;;6.80;91.00;;;;;;7370171;19;20017;-76
2023/01/22 23:59:18;;;;;;;49.47;22.98;;;6.80;90.80;;;;;;7370659;19;20029;-76
